createdAt,value
2019-03-29T00:00:06.016Z,15.85
2019-03-29T00:01:11.041Z,12.90
2019-03-29T00:02:14.358Z,12.37
2019-03-29T00:03:17.677Z,20.12
2019-03-29T00:04:20.871Z,12.90
2019-03-29T00:05:24.424Z,16.12
2019-03-29T00:06:27.996Z,14.70
2019-03-29T00:07:39.432Z,16.70
2019-03-29T00:08:37.796Z,13.03
2019-03-29T00:09:41.035Z,13.13
2019-03-29T00:10:45.316Z,13.80
2019-03-29T00:11:48.545Z,13.15
2019-03-29T00:12:51.753Z,13.93
2019-03-29T00:13:54.962Z,18.00
2019-03-29T00:14:58.596Z,15.93
2019-03-29T00:16:01.868Z,14.10
2019-03-29T00:17:05.169Z,13.45
2019-03-29T00:18:09.343Z,13.00
2019-03-29T00:19:13.224Z,12.47
2019-03-29T00:20:16.446Z,13.72
2019-03-29T00:21:19.691Z,12.03
2019-03-29T00:22:22.913Z,13.03
2019-03-29T00:23:26.981Z,11.97
2019-03-29T00:24:30.237Z,18.07
2019-03-29T00:25:33.561Z,16.37
2019-03-29T00:26:36.888Z,16.02
2019-03-29T00:27:40.649Z,13.68
2019-03-29T00:28:44.117Z,16.02
2019-03-29T00:29:47.613Z,17.05
2019-03-29T00:30:50.933Z,16.10
2019-03-29T00:31:54.937Z,16.55
2019-03-29T00:32:59.091Z,13.08
2019-03-29T00:34:02.277Z,13.58
2019-03-29T00:35:07.892Z,16.52
2019-03-29T00:36:11.706Z,17.15
2019-03-29T00:37:14.897Z,12.75
2019-03-29T00:38:18.195Z,15.35
2019-03-29T00:39:24.057Z,13.10
2019-03-29T00:40:27.255Z,16.07
2019-03-29T00:41:30.451Z,14.33
2019-03-29T00:42:33.749Z,12.05
2019-03-29T00:43:36.998Z,13.58
2019-03-29T00:44:40.336Z,13.30
2019-03-29T00:45:43.525Z,12.35
2019-03-29T00:46:46.773Z,13.48
2019-03-29T00:47:50.010Z,12.05
2019-03-29T00:48:53.215Z,11.55
2019-03-29T00:49:56.397Z,13.75
2019-03-29T00:50:59.642Z,12.55
2019-03-29T00:52:02.833Z,15.10
2019-03-29T00:53:06.185Z,11.90
2019-03-29T00:54:09.370Z,12.05
2019-03-29T00:55:12.776Z,12.55
2019-03-29T00:56:16.042Z,10.93
2019-03-29T00:57:19.241Z,11.70
2019-03-29T00:58:22.992Z,14.78
2019-03-29T00:59:26.301Z,11.65
2019-03-29T01:00:31.445Z,12.60
2019-03-29T01:01:34.642Z,12.58
2019-03-29T01:02:37.844Z,11.97
2019-03-29T01:03:41.185Z,21.62
2019-03-29T01:04:45.632Z,13.72
2019-03-29T01:05:48.829Z,12.10
2019-03-29T01:06:52.058Z,12.98
2019-03-29T01:08:07.082Z,10.55
2019-03-29T01:09:00.336Z,10.20
2019-03-29T01:10:03.890Z,11.73
2019-03-29T01:11:07.120Z,13.32
2019-03-29T01:12:10.461Z,11.93
2019-03-29T01:13:13.689Z,12.68
2019-03-29T01:14:17.135Z,12.30
2019-03-29T01:15:20.410Z,15.60
2019-03-29T01:16:23.608Z,14.43
2019-03-29T01:17:26.804Z,12.68
2019-03-29T01:18:29.990Z,10.25
2019-03-29T01:19:33.201Z,12.07
2019-03-29T01:20:36.376Z,14.28
2019-03-29T01:21:39.974Z,14.68
2019-03-29T01:22:43.227Z,11.78
2019-03-29T01:23:46.420Z,11.73
2019-03-29T01:24:49.665Z,10.63
2019-03-29T01:25:52.906Z,12.50
2019-03-29T01:26:56.461Z,11.53
2019-03-29T01:27:59.658Z,14.15
2019-03-29T01:29:03.129Z,12.43
2019-03-29T01:30:07.336Z,15.05
2019-03-29T01:31:10.623Z,11.22
2019-03-29T01:32:13.806Z,13.08
2019-03-29T01:33:17.029Z,11.95
2019-03-29T01:34:20.213Z,11.20
2019-03-29T01:35:23.628Z,11.80
2019-03-29T01:36:27.881Z,10.85
2019-03-29T01:37:31.356Z,12.10
2019-03-29T01:38:34.572Z,11.43
2019-03-29T01:39:37.746Z,11.95
2019-03-29T01:40:41.045Z,13.35
2019-03-29T01:41:44.226Z,11.33
2019-03-29T01:42:47.407Z,12.18
2019-03-29T01:43:50.674Z,13.40
2019-03-29T01:44:53.896Z,10.28
2019-03-29T01:45:57.126Z,14.13
2019-03-29T01:47:00.359Z,12.63
2019-03-29T01:48:03.564Z,13.68
2019-03-29T01:49:06.783Z,14.07
2019-03-29T01:50:10.096Z,10.72
2019-03-29T01:51:13.444Z,13.03
2019-03-29T01:52:16.613Z,12.00
2019-03-29T01:53:19.918Z,12.20
2019-03-29T01:54:23.104Z,12.75
2019-03-29T01:55:26.284Z,14.53
2019-03-29T01:56:29.553Z,12.65
2019-03-29T01:57:32.917Z,13.32
2019-03-29T01:58:36.130Z,12.05
2019-03-29T01:59:39.340Z,13.32
2019-03-29T02:00:42.566Z,15.43
2019-03-29T02:01:45.869Z,12.10
2019-03-29T02:02:49.077Z,12.13
2019-03-29T02:03:52.329Z,12.25
2019-03-29T02:04:55.554Z,14.53
2019-03-29T02:05:58.769Z,11.68
2019-03-29T02:07:02.021Z,12.25
2019-03-29T02:08:05.368Z,12.28
2019-03-29T02:09:08.588Z,13.75
2019-03-29T02:10:11.885Z,11.38
2019-03-29T02:11:15.174Z,14.50
2019-03-29T02:12:18.312Z,14.90
2019-03-29T02:13:21.646Z,13.55
2019-03-29T02:14:24.852Z,15.75
2019-03-29T02:15:28.053Z,16.67
2019-03-29T02:16:31.400Z,15.70
2019-03-29T02:17:34.701Z,12.28
2019-03-29T02:18:37.922Z,14.70
2019-03-29T02:19:41.114Z,14.78
2019-03-29T02:20:44.329Z,23.32
2019-03-29T02:21:47.572Z,14.07
2019-03-29T02:22:50.833Z,16.95
2019-03-29T02:23:54.077Z,18.35
2019-03-29T02:24:57.313Z,16.45
2019-03-29T02:26:00.652Z,17.35
2019-03-29T02:27:03.944Z,16.70
2019-03-29T02:28:07.217Z,13.93
2019-03-29T02:29:11.034Z,14.15
2019-03-29T02:30:14.571Z,14.83
2019-03-29T02:31:17.785Z,17.10
2019-03-29T02:32:20.995Z,13.98
2019-03-29T02:33:24.262Z,16.32
2019-03-29T02:34:27.485Z,15.10
2019-03-29T02:35:30.735Z,16.82
2019-03-29T02:36:34.663Z,19.15
2019-03-29T02:37:39.205Z,15.55
2019-03-29T02:38:55.015Z,18.77
2019-03-29T02:39:47.437Z,15.70
2019-03-29T02:40:50.985Z,15.48
2019-03-29T02:41:54.581Z,15.75
2019-03-29T02:42:57.801Z,16.42
2019-03-29T02:44:01.062Z,16.50
2019-03-29T02:45:04.716Z,18.10
2019-03-29T02:46:07.958Z,19.32
2019-03-29T02:47:11.150Z,17.45
2019-03-29T02:48:14.353Z,15.53
2019-03-29T02:49:17.602Z,14.53
2019-03-29T02:50:20.810Z,15.00
2019-03-29T02:51:24.005Z,14.65
2019-03-29T02:52:27.199Z,16.30
2019-03-29T02:53:30.406Z,19.65
2019-03-29T02:54:33.662Z,14.87
2019-03-29T02:55:36.882Z,14.60
2019-03-29T02:56:40.119Z,15.75
2019-03-29T02:57:43.373Z,16.52
2019-03-29T02:58:46.559Z,15.13
2019-03-29T02:59:49.827Z,13.80
2019-03-29T03:00:53.018Z,15.45
2019-03-29T03:01:56.214Z,12.25
2019-03-29T03:02:59.538Z,14.18
2019-03-29T03:04:02.735Z,14.63
2019-03-29T03:05:06.188Z,15.05
2019-03-29T03:06:09.654Z,14.95
2019-03-29T03:07:12.839Z,16.15
2019-03-29T03:08:16.047Z,14.07
2019-03-29T03:09:19.241Z,13.10
2019-03-29T03:10:22.504Z,13.40
2019-03-29T03:11:25.698Z,14.63
2019-03-29T03:12:28.933Z,15.48
2019-03-29T03:13:32.176Z,16.20
2019-03-29T03:14:35.382Z,16.00
2019-03-29T03:15:38.598Z,15.63
2019-03-29T03:16:41.814Z,15.18
2019-03-29T03:17:45.121Z,17.27
2019-03-29T03:18:48.303Z,14.03
2019-03-29T03:19:51.499Z,16.05
2019-03-29T03:20:54.735Z,14.53
2019-03-29T03:21:57.919Z,13.88
2019-03-29T03:23:01.131Z,16.00
2019-03-29T03:24:04.557Z,16.65
2019-03-29T03:25:08.333Z,18.42
2019-03-29T03:26:11.632Z,17.17
2019-03-29T03:27:14.858Z,14.78
2019-03-29T03:28:18.073Z,17.17
2019-03-29T03:29:21.317Z,15.30
2019-03-29T03:30:24.639Z,14.68
2019-03-29T03:31:27.866Z,15.05
2019-03-29T03:32:31.060Z,15.55
2019-03-29T03:33:34.262Z,13.85
2019-03-29T03:34:37.651Z,18.12
2019-03-29T03:35:40.800Z,16.95
2019-03-29T03:36:44.031Z,17.92
2019-03-29T03:37:47.228Z,15.50
2019-03-29T03:38:50.481Z,15.25
2019-03-29T03:39:53.653Z,15.78
2019-03-29T03:40:56.926Z,23.00
2019-03-29T03:42:00.157Z,21.65
2019-03-29T03:43:03.368Z,16.55
2019-03-29T03:44:06.586Z,16.00
2019-03-29T03:45:10.217Z,17.48
2019-03-29T03:46:13.436Z,21.33
2019-03-29T03:47:16.674Z,17.55
2019-03-29T03:48:19.974Z,16.50
2019-03-29T03:49:23.174Z,17.95
2019-03-29T03:50:35.110Z,17.60
2019-03-29T03:51:38.424Z,18.35
2019-03-29T03:52:41.918Z,18.60
2019-03-29T03:53:45.597Z,15.48
2019-03-29T03:54:48.996Z,17.02
2019-03-29T03:55:53.190Z,19.05
2019-03-29T03:56:57.105Z,19.70
2019-03-29T03:58:01.785Z,15.13
2019-03-29T03:59:04.982Z,17.20
2019-03-29T04:00:08.709Z,14.70
2019-03-29T04:01:11.896Z,15.00
2019-03-29T04:02:15.208Z,14.55
2019-03-29T04:03:18.486Z,16.27
2019-03-29T04:04:21.693Z,16.95
2019-03-29T04:05:24.926Z,17.30
2019-03-29T04:06:28.145Z,17.40
2019-03-29T04:07:31.383Z,17.32
2019-03-29T04:08:34.648Z,18.45
2019-03-29T04:09:49.609Z,16.50
2019-03-29T04:10:43.140Z,16.97
2019-03-29T04:11:46.344Z,16.05
2019-03-29T04:12:49.540Z,16.55
2019-03-29T04:13:52.894Z,17.65
2019-03-29T04:14:56.219Z,14.43
2019-03-29T04:15:59.485Z,17.37
2019-03-29T04:17:02.710Z,17.15
2019-03-29T04:18:05.896Z,15.03
2019-03-29T04:19:09.161Z,19.48
2019-03-29T04:20:12.356Z,17.52
2019-03-29T04:21:15.591Z,17.55
2019-03-29T04:22:18.811Z,17.48
2019-03-29T04:23:22.029Z,16.77
2019-03-29T04:24:25.307Z,15.55
2019-03-29T04:25:28.618Z,14.18
2019-03-29T04:26:31.846Z,17.05
2019-03-29T04:27:35.025Z,15.08
2019-03-29T04:28:38.354Z,15.20
2019-03-29T04:29:41.619Z,17.32
2019-03-29T04:30:47.790Z,17.17
2019-03-29T04:31:50.993Z,16.73
2019-03-29T04:32:54.254Z,16.82
2019-03-29T04:33:57.486Z,16.57
2019-03-29T04:35:00.719Z,14.53
2019-03-29T04:36:04.001Z,19.27
2019-03-29T04:37:07.194Z,19.35
2019-03-29T04:38:10.396Z,16.80
2019-03-29T04:39:13.710Z,18.45
2019-03-29T04:40:16.952Z,16.32
2019-03-29T04:41:20.205Z,16.93
2019-03-29T04:42:23.422Z,18.67
2019-03-29T04:43:26.618Z,18.92
2019-03-29T04:44:29.789Z,16.82
2019-03-29T04:45:33.073Z,19.60
2019-03-29T04:46:36.310Z,17.37
2019-03-29T04:47:39.504Z,19.35
2019-03-29T04:48:42.688Z,17.17
2019-03-29T04:49:45.940Z,16.82
2019-03-29T04:50:49.174Z,17.65
2019-03-29T04:51:52.406Z,17.90
2019-03-29T04:52:55.645Z,19.87
2019-03-29T04:53:59.004Z,15.65
2019-03-29T04:55:02.288Z,17.57
2019-03-29T04:56:05.526Z,17.73
2019-03-29T04:57:08.717Z,19.73
2019-03-29T04:58:11.912Z,15.25
2019-03-29T04:59:15.111Z,22.73
2019-03-29T05:00:19.008Z,16.07
2019-03-29T05:01:22.303Z,31.17
2019-03-29T05:02:25.549Z,17.60
2019-03-29T05:03:28.756Z,21.50
2019-03-29T05:04:31.981Z,20.32
2019-03-29T05:05:35.165Z,19.60
2019-03-29T05:06:38.371Z,23.67
2019-03-29T05:07:41.570Z,19.45
2019-03-29T05:08:44.799Z,22.82
2019-03-29T05:09:48.013Z,20.68
2019-03-29T05:10:51.206Z,17.60
2019-03-29T05:11:54.497Z,20.02
2019-03-29T05:12:59.592Z,16.25
2019-03-29T05:14:02.698Z,18.45
2019-03-29T05:15:06.520Z,21.25
2019-03-29T05:16:09.781Z,18.90
2019-03-29T05:17:13.014Z,16.02
2019-03-29T05:18:16.205Z,21.27
2019-03-29T05:19:19.409Z,19.37
2019-03-29T05:20:22.609Z,17.70
2019-03-29T05:21:25.855Z,18.05
2019-03-29T05:22:29.087Z,15.40
2019-03-29T05:23:32.289Z,19.32
2019-03-29T05:24:35.480Z,18.55
2019-03-29T05:25:38.689Z,13.95
2019-03-29T05:26:41.885Z,15.83
2019-03-29T05:27:45.149Z,14.33
2019-03-29T05:28:48.377Z,15.28
2019-03-29T05:29:51.582Z,17.42
2019-03-29T05:30:54.830Z,17.05
2019-03-29T05:31:58.031Z,14.58
2019-03-29T05:33:01.353Z,15.45
2019-03-29T05:34:04.599Z,15.48
2019-03-29T05:35:08.212Z,14.53
2019-03-29T05:36:11.505Z,17.77
2019-03-29T05:37:14.729Z,19.32
2019-03-29T05:38:17.985Z,15.32
2019-03-29T05:39:21.204Z,14.98
2019-03-29T05:40:34.737Z,14.73
2019-03-29T05:41:29.549Z,15.00
2019-03-29T05:42:32.837Z,15.85
2019-03-29T05:43:36.128Z,14.60
2019-03-29T05:44:40.831Z,17.30
2019-03-29T05:45:44.194Z,17.60
2019-03-29T05:46:47.529Z,14.38
2019-03-29T05:47:50.717Z,16.23
2019-03-29T05:48:53.971Z,16.67
2019-03-29T05:49:57.226Z,14.10
2019-03-29T05:51:00.428Z,15.72
2019-03-29T05:52:03.653Z,16.85
2019-03-29T05:53:06.829Z,13.80
2019-03-29T05:54:10.104Z,17.73
2019-03-29T05:55:13.297Z,18.32
2019-03-29T05:56:16.532Z,19.45
2019-03-29T05:57:19.792Z,15.10
2019-03-29T05:58:23.009Z,16.55
2019-03-29T05:59:26.281Z,15.72
2019-03-29T06:00:29.560Z,15.45
2019-03-29T06:01:32.744Z,14.58
2019-03-29T06:02:36.009Z,15.93
2019-03-29T06:03:39.220Z,17.77
2019-03-29T06:04:42.459Z,16.02
2019-03-29T06:05:45.686Z,16.07
2019-03-29T06:06:48.885Z,15.88
2019-03-29T06:07:52.143Z,15.93
2019-03-29T06:08:55.341Z,20.10
2019-03-29T06:09:58.586Z,20.32
2019-03-29T06:11:02.201Z,15.35
2019-03-29T06:12:05.386Z,19.65
2019-03-29T06:13:08.578Z,16.82
2019-03-29T06:14:11.766Z,20.43
2019-03-29T06:15:15.128Z,21.45
2019-03-29T06:16:18.396Z,24.05
2019-03-29T06:17:21.602Z,17.40
2019-03-29T06:18:24.846Z,26.12
2019-03-29T06:19:28.090Z,20.62
2019-03-29T06:20:31.351Z,21.15
2019-03-29T06:21:34.557Z,15.88
2019-03-29T06:22:37.798Z,18.20
2019-03-29T06:23:41.004Z,19.50
2019-03-29T06:24:44.173Z,16.95
2019-03-29T06:25:47.386Z,16.55
2019-03-29T06:26:50.582Z,21.17
2019-03-29T06:27:53.816Z,22.55
2019-03-29T06:28:57.027Z,20.70
2019-03-29T06:30:00.356Z,18.57
2019-03-29T06:31:03.645Z,22.20
2019-03-29T06:32:06.871Z,21.48
2019-03-29T06:33:10.176Z,20.62
2019-03-29T06:34:13.465Z,19.20
2019-03-29T06:35:16.647Z,21.77
2019-03-29T06:36:21.542Z,19.02
2019-03-29T06:37:25.665Z,19.85
2019-03-29T06:38:30.570Z,17.62
2019-03-29T06:39:33.798Z,22.52
2019-03-29T06:40:37.347Z,19.50
2019-03-29T06:41:40.639Z,29.85
2019-03-29T06:42:43.824Z,21.20
2019-03-29T06:43:46.997Z,27.98
2019-03-29T06:44:50.203Z,21.10
2019-03-29T06:45:53.570Z,22.65
2019-03-29T06:46:56.806Z,17.98
2019-03-29T06:48:00.046Z,19.37
2019-03-29T06:49:03.333Z,19.23
2019-03-29T06:50:06.752Z,18.85
2019-03-29T06:51:09.937Z,18.32
2019-03-29T06:52:13.197Z,19.73
2019-03-29T06:53:19.352Z,19.17
2019-03-29T06:54:22.536Z,16.32
2019-03-29T06:55:25.845Z,18.10
2019-03-29T06:56:29.094Z,17.40
2019-03-29T06:57:32.717Z,15.93
2019-03-29T06:58:36.077Z,17.52
2019-03-29T06:59:39.304Z,17.25
2019-03-29T07:00:42.827Z,17.98
2019-03-29T07:01:46.550Z,16.75
2019-03-29T07:02:49.844Z,17.98
2019-03-29T07:03:53.082Z,19.12
2019-03-29T07:04:56.379Z,14.25
2019-03-29T07:05:59.588Z,14.87
2019-03-29T07:07:02.765Z,20.32
2019-03-29T07:08:06.123Z,16.52
2019-03-29T07:09:09.426Z,15.68
2019-03-29T07:10:12.738Z,16.95
2019-03-29T07:11:17.649Z,30.12
2019-03-29T07:12:21.000Z,38.83
2019-03-29T07:13:24.284Z,16.55
2019-03-29T07:14:27.613Z,13.25
2019-03-29T07:15:30.810Z,14.53
2019-03-29T07:16:34.025Z,14.15
2019-03-29T07:17:37.695Z,14.70
2019-03-29T07:18:40.938Z,12.82
2019-03-29T07:19:44.174Z,12.40
2019-03-29T07:20:47.458Z,13.85
2019-03-29T07:21:50.787Z,11.22
2019-03-29T07:22:54.018Z,11.45
2019-03-29T07:23:57.284Z,12.30
2019-03-29T07:25:00.473Z,11.20
2019-03-29T07:26:03.656Z,11.08
2019-03-29T07:27:06.921Z,10.13
2019-03-29T07:28:10.251Z,14.38
2019-03-29T07:29:13.540Z,10.70
2019-03-29T07:30:16.918Z,13.45
2019-03-29T07:31:20.117Z,18.48
2019-03-29T07:32:23.347Z,14.43
2019-03-29T07:33:26.529Z,14.07
2019-03-29T07:34:29.749Z,13.90
2019-03-29T07:35:33.024Z,18.70
2019-03-29T07:36:36.221Z,39.38
2019-03-29T07:37:39.426Z,27.20
2019-03-29T07:38:42.689Z,13.30
2019-03-29T07:39:45.942Z,15.15
2019-03-29T07:40:49.253Z,14.43
2019-03-29T07:41:52.456Z,14.55
2019-03-29T07:42:55.983Z,17.92
2019-03-29T07:43:59.576Z,17.10
2019-03-29T07:45:02.808Z,16.62
2019-03-29T07:46:06.001Z,22.73
2019-03-29T07:47:09.205Z,15.63
2019-03-29T07:48:12.409Z,32.08
2019-03-29T07:49:15.677Z,14.68
2019-03-29T07:50:19.311Z,21.48
2019-03-29T07:51:22.582Z,14.23
2019-03-29T07:52:25.836Z,14.03
2019-03-29T07:53:29.151Z,15.83
2019-03-29T07:54:32.389Z,14.03
2019-03-29T07:55:37.331Z,15.40
2019-03-29T07:56:40.820Z,13.48
2019-03-29T07:57:44.055Z,15.53
2019-03-29T07:58:47.308Z,15.38
2019-03-29T07:59:50.619Z,15.58
2019-03-29T08:00:54.006Z,16.15
2019-03-29T08:01:57.189Z,19.70
2019-03-29T08:03:00.498Z,22.35
2019-03-29T08:04:03.758Z,18.80
2019-03-29T08:05:07.020Z,15.32
2019-03-29T08:06:10.271Z,17.65
2019-03-29T08:07:26.327Z,15.63
2019-03-29T08:08:24.823Z,14.70
2019-03-29T08:09:27.438Z,16.52
2019-03-29T08:10:31.866Z,13.55
2019-03-29T08:11:45.633Z,14.50
2019-03-29T08:12:40.682Z,14.40
2019-03-29T08:13:44.014Z,14.95
2019-03-29T08:14:47.263Z,14.68
2019-03-29T08:15:50.471Z,12.75
2019-03-29T08:16:53.808Z,13.30
2019-03-29T08:17:57.055Z,13.45
2019-03-29T08:19:00.425Z,14.63
2019-03-29T08:20:36.521Z,11.83
2019-03-29T08:21:08.970Z,12.33
2019-03-29T08:22:12.205Z,12.88
2019-03-29T08:23:15.389Z,14.18
2019-03-29T08:24:18.582Z,15.45
2019-03-29T08:25:21.784Z,12.10
2019-03-29T08:26:24.965Z,11.90
2019-03-29T08:27:28.261Z,13.75
2019-03-29T08:28:31.488Z,12.93
2019-03-29T08:29:34.703Z,12.03
2019-03-29T08:30:37.943Z,12.70
2019-03-29T08:31:41.213Z,14.43
2019-03-29T08:32:44.547Z,11.80
2019-03-29T08:33:47.736Z,12.75
2019-03-29T08:34:51.034Z,12.15
2019-03-29T08:35:54.253Z,12.20
2019-03-29T08:36:57.473Z,11.38
2019-03-29T08:38:00.761Z,12.15
2019-03-29T08:39:05.608Z,11.57
2019-03-29T08:40:08.930Z,12.35
2019-03-29T08:41:12.212Z,13.32
2019-03-29T08:42:18.370Z,31.37
2019-03-29T08:43:20.485Z,12.95
2019-03-29T08:44:23.689Z,12.35
2019-03-29T08:45:26.914Z,13.00
2019-03-29T08:46:30.222Z,12.28
2019-03-29T08:47:33.544Z,13.03
2019-03-29T08:48:36.840Z,14.13
2019-03-29T08:49:40.049Z,12.28
2019-03-29T08:50:43.322Z,10.43
2019-03-29T08:51:46.657Z,17.50
2019-03-29T08:52:49.907Z,11.38
2019-03-29T08:53:53.186Z,11.53
2019-03-29T08:54:56.548Z,11.73
2019-03-29T08:55:59.756Z,14.70
2019-03-29T08:57:03.002Z,10.80
2019-03-29T08:58:06.216Z,7.95
2019-03-29T08:59:09.494Z,9.35
2019-03-29T09:00:16.017Z,8.35
2019-03-29T09:01:19.882Z,6.40
2019-03-29T09:02:25.071Z,7.22
2019-03-29T09:03:28.560Z,6.45
2019-03-29T09:04:31.889Z,5.80
2019-03-29T09:05:35.118Z,7.10
2019-03-29T09:06:52.100Z,6.55
2019-03-29T09:07:45.330Z,7.30
2019-03-29T09:08:49.421Z,6.62
2019-03-29T09:09:52.720Z,7.83
2019-03-29T09:10:56.287Z,9.95
2019-03-29T09:12:13.365Z,10.93
2019-03-29T09:13:04.834Z,8.55
2019-03-29T09:14:08.165Z,10.70
2019-03-29T09:15:11.422Z,9.90
2019-03-29T09:16:14.764Z,10.10
2019-03-29T09:17:18.008Z,9.15
2019-03-29T09:18:21.255Z,10.48
2019-03-29T09:19:24.471Z,8.45
2019-03-29T09:20:27.798Z,8.38
2019-03-29T09:21:31.016Z,9.73
2019-03-29T09:22:34.249Z,8.25
2019-03-29T09:23:37.562Z,8.63
2019-03-29T09:24:41.119Z,8.45
2019-03-29T09:25:44.571Z,8.65
2019-03-29T09:26:47.907Z,10.75
2019-03-29T09:27:51.141Z,8.55
2019-03-29T09:28:54.389Z,7.75
2019-03-29T09:29:57.915Z,8.73
2019-03-29T09:31:01.197Z,10.58
2019-03-29T09:32:04.453Z,9.88
2019-03-29T09:33:07.865Z,8.45
2019-03-29T09:34:11.097Z,9.93
2019-03-29T09:35:14.465Z,8.53
2019-03-29T09:36:17.761Z,9.35
2019-03-29T09:37:21.029Z,9.90
2019-03-29T09:38:24.362Z,9.20
2019-03-29T09:39:27.566Z,7.62
2019-03-29T09:40:30.766Z,8.93
2019-03-29T09:41:36.633Z,11.60
2019-03-29T09:42:39.809Z,15.78
2019-03-29T09:43:43.055Z,8.90
2019-03-29T09:44:46.281Z,8.83
2019-03-29T09:45:49.527Z,12.53
2019-03-29T09:46:52.803Z,7.12
2019-03-29T09:47:56.170Z,9.80
2019-03-29T09:48:59.331Z,8.63
2019-03-29T09:50:02.622Z,9.58
2019-03-29T09:51:05.911Z,12.65
2019-03-29T09:52:09.254Z,10.60
2019-03-29T09:53:12.495Z,11.03
2019-03-29T09:54:15.797Z,10.03
2019-03-29T09:55:19.296Z,16.42
2019-03-29T09:56:22.521Z,10.43
2019-03-29T09:57:36.899Z,9.73
2019-03-29T09:58:33.467Z,8.75
2019-03-29T09:59:36.746Z,10.80
2019-03-29T10:00:39.984Z,9.98
2019-03-29T10:01:43.280Z,10.65
2019-03-29T10:02:46.529Z,9.43
2019-03-29T10:03:49.724Z,11.93
2019-03-29T10:04:52.982Z,9.38
2019-03-29T10:05:56.180Z,9.33
2019-03-29T10:06:59.708Z,10.78
2019-03-29T10:08:02.997Z,8.98
2019-03-29T10:09:06.884Z,9.33
2019-03-29T10:10:10.426Z,8.90
2019-03-29T10:11:13.725Z,9.93
2019-03-29T10:12:16.931Z,9.73
2019-03-29T10:13:20.217Z,9.15
2019-03-29T10:14:23.415Z,10.05
2019-03-29T10:15:26.689Z,9.18
2019-03-29T10:16:29.945Z,9.83
2019-03-29T10:17:33.152Z,12.43
2019-03-29T10:18:36.374Z,8.95
2019-03-29T10:19:39.595Z,8.95
2019-03-29T10:20:42.848Z,12.75
2019-03-29T10:21:46.201Z,9.03
2019-03-29T10:22:49.528Z,8.70
2019-03-29T10:23:52.796Z,15.48
2019-03-29T10:24:55.953Z,10.85
2019-03-29T10:25:59.323Z,16.00
2019-03-29T10:27:02.765Z,10.65
2019-03-29T10:28:05.974Z,11.33
2019-03-29T10:29:09.209Z,11.83
2019-03-29T10:30:14.337Z,11.90
2019-03-29T10:31:31.101Z,11.08
2019-03-29T10:32:22.595Z,11.08
2019-03-29T10:33:25.867Z,9.93
2019-03-29T10:34:29.180Z,12.45
2019-03-29T10:35:32.551Z,10.08
2019-03-29T10:36:35.779Z,9.98
2019-03-29T10:37:39.049Z,10.00
2019-03-29T10:38:42.282Z,10.25
2019-03-29T10:39:45.736Z,11.08
2019-03-29T10:40:49.008Z,11.10
2019-03-29T10:41:52.237Z,10.35
2019-03-29T10:42:58.074Z,11.97
2019-03-29T10:44:00.525Z,10.48
2019-03-29T10:45:03.948Z,10.63
2019-03-29T10:46:07.176Z,9.80
2019-03-29T10:47:10.370Z,13.60
2019-03-29T10:48:13.577Z,11.95
2019-03-29T10:49:16.868Z,10.13
2019-03-29T10:50:20.103Z,12.15
2019-03-29T10:51:23.329Z,13.22
2019-03-29T10:52:26.569Z,12.43
2019-03-29T10:53:29.808Z,10.13
2019-03-29T10:54:33.049Z,13.93
2019-03-29T10:55:36.312Z,10.60
2019-03-29T10:56:39.574Z,11.55
2019-03-29T10:57:42.794Z,11.15
2019-03-29T10:58:45.989Z,11.10
2019-03-29T10:59:49.280Z,10.55
2019-03-29T11:00:52.509Z,10.55
2019-03-29T11:01:55.702Z,12.00
2019-03-29T11:02:59.222Z,11.75
2019-03-29T11:04:02.560Z,11.33
2019-03-29T11:05:06.089Z,13.20
2019-03-29T11:06:09.333Z,16.93
2019-03-29T11:07:12.767Z,14.63
2019-03-29T11:08:15.972Z,12.33
2019-03-29T11:09:19.192Z,15.98
2019-03-29T11:10:30.282Z,14.45
2019-03-29T11:11:33.504Z,11.55
2019-03-29T11:12:36.763Z,10.63
2019-03-29T11:13:43.145Z,11.93
2019-03-29T11:14:46.347Z,13.38
2019-03-29T11:15:49.562Z,11.63
2019-03-29T11:16:52.829Z,12.63
2019-03-29T11:17:56.024Z,10.78
2019-03-29T11:18:59.226Z,12.85
2019-03-29T11:20:03.927Z,10.58
2019-03-29T11:21:07.199Z,14.40
2019-03-29T11:22:10.444Z,13.03
2019-03-29T11:23:13.712Z,10.88
2019-03-29T11:24:16.906Z,15.83
2019-03-29T11:25:20.300Z,16.48
2019-03-29T11:26:23.631Z,12.45
2019-03-29T11:27:26.910Z,13.80
2019-03-29T11:28:30.197Z,10.43
2019-03-29T11:29:33.536Z,13.85
2019-03-29T11:30:42.477Z,12.98
2019-03-29T11:31:41.827Z,12.95
2019-03-29T11:32:45.209Z,12.53
2019-03-29T11:33:48.720Z,11.90
2019-03-29T11:34:52.013Z,11.45
2019-03-29T11:35:55.346Z,10.85
2019-03-29T11:36:58.576Z,13.98
2019-03-29T11:38:01.849Z,12.58
2019-03-29T11:39:06.894Z,13.32
2019-03-29T11:40:11.235Z,11.12
2019-03-29T11:41:14.445Z,13.55
2019-03-29T11:42:17.971Z,10.78
2019-03-29T11:43:27.036Z,10.43
2019-03-29T11:44:26.353Z,13.32
2019-03-29T11:45:30.000Z,11.55
2019-03-29T11:46:33.201Z,12.10
2019-03-29T11:47:36.414Z,12.00
2019-03-29T11:48:39.640Z,9.48
2019-03-29T11:49:42.843Z,13.37
2019-03-29T11:50:46.380Z,13.13
2019-03-29T11:51:49.662Z,9.93
2019-03-29T11:52:52.974Z,9.83
2019-03-29T11:53:56.202Z,16.30
2019-03-29T11:54:59.466Z,11.70
2019-03-29T11:56:08.750Z,14.47
2019-03-29T11:57:11.991Z,11.70
2019-03-29T11:58:15.220Z,9.87
2019-03-29T11:59:18.461Z,9.57
2019-03-29T12:00:33.411Z,9.93
2019-03-29T12:01:36.631Z,14.23
2019-03-29T12:02:39.837Z,10.10
2019-03-29T12:03:43.071Z,12.00
2019-03-29T12:04:46.336Z,9.93
2019-03-29T12:05:49.868Z,12.23
2019-03-29T12:06:53.104Z,14.20
2019-03-29T12:07:56.323Z,11.63
2019-03-29T12:08:59.663Z,9.33
2019-03-29T12:10:03.716Z,8.87
2019-03-29T12:11:07.380Z,13.53
2019-03-29T12:12:10.609Z,8.90
2019-03-29T12:13:13.813Z,10.87
2019-03-29T12:14:17.055Z,16.47
2019-03-29T12:15:20.486Z,9.20
2019-03-29T12:16:23.748Z,7.80
2019-03-29T12:17:27.014Z,12.23
2019-03-29T12:18:30.204Z,11.57
2019-03-29T12:19:33.462Z,8.50
2019-03-29T12:20:36.813Z,9.10
2019-03-29T12:21:40.040Z,7.83
2019-03-29T12:22:43.245Z,8.63
2019-03-29T12:23:46.488Z,8.70
2019-03-29T12:24:49.712Z,8.33
2019-03-29T12:25:52.953Z,9.57
2019-03-29T12:26:56.147Z,15.07
2019-03-29T12:27:59.349Z,9.43
2019-03-29T12:29:02.610Z,8.37
2019-03-29T12:30:07.518Z,8.60
2019-03-29T12:31:11.150Z,10.07
2019-03-29T12:32:14.382Z,8.43
2019-03-29T12:33:17.569Z,19.10
2019-03-29T12:34:20.894Z,7.87
2019-03-29T12:35:24.144Z,8.90
2019-03-29T12:36:27.388Z,9.50
2019-03-29T12:37:30.630Z,8.83
2019-03-29T12:38:33.826Z,8.67
2019-03-29T12:39:37.146Z,12.90
2019-03-29T12:40:45.166Z,21.57
2019-03-29T12:41:48.253Z,10.87
2019-03-29T12:42:51.475Z,11.07
2019-03-29T12:43:56.110Z,9.70
2019-03-29T12:44:59.584Z,8.97
2019-03-29T12:46:03.469Z,9.87
2019-03-29T12:47:06.706Z,14.77
2019-03-29T12:48:09.918Z,8.97
2019-03-29T12:49:13.497Z,8.20
2019-03-29T12:50:16.730Z,8.53
2019-03-29T12:51:19.925Z,9.40
2019-03-29T12:52:23.265Z,12.53
2019-03-29T12:53:26.466Z,13.87
2019-03-29T12:54:29.694Z,9.87
2019-03-29T12:55:33.345Z,10.23
2019-03-29T12:56:36.624Z,12.13
2019-03-29T12:57:39.885Z,8.37
2019-03-29T12:58:43.134Z,9.17
2019-03-29T12:59:46.781Z,7.87
2019-03-29T13:00:50.149Z,8.33
2019-03-29T13:01:53.314Z,10.03
2019-03-29T13:02:56.634Z,7.53
2019-03-29T13:03:59.937Z,7.33
2019-03-29T13:05:03.290Z,8.77
2019-03-29T13:06:06.621Z,10.28
2019-03-29T13:07:09.904Z,8.05
2019-03-29T13:08:13.251Z,8.68
2019-03-29T13:09:16.655Z,9.65
2019-03-29T13:10:19.945Z,15.32
2019-03-29T13:11:23.161Z,10.35
2019-03-29T13:12:26.443Z,10.75
2019-03-29T13:13:29.684Z,10.90
2019-03-29T13:14:32.918Z,10.70
2019-03-29T13:15:36.164Z,8.20
2019-03-29T13:16:39.355Z,8.23
2019-03-29T13:17:42.561Z,8.00
2019-03-29T13:18:45.997Z,11.05
2019-03-29T13:19:49.193Z,9.03
2019-03-29T13:20:52.433Z,10.68
2019-03-29T13:21:55.668Z,8.28
2019-03-29T13:22:58.946Z,8.38
2019-03-29T13:24:02.197Z,9.13
2019-03-29T13:25:07.541Z,8.28
2019-03-29T13:26:11.036Z,9.98
2019-03-29T13:27:14.353Z,12.43
2019-03-29T13:28:17.576Z,10.70
2019-03-29T13:29:20.787Z,9.13
2019-03-29T13:30:24.017Z,8.28
2019-03-29T13:31:27.262Z,7.40
2019-03-29T13:32:33.274Z,7.45
2019-03-29T13:33:35.517Z,9.95
2019-03-29T13:34:38.770Z,9.03
2019-03-29T13:35:44.515Z,9.50
2019-03-29T13:36:47.133Z,8.55
2019-03-29T13:37:50.333Z,9.40
2019-03-29T13:38:53.621Z,8.05
2019-03-29T13:39:56.846Z,8.45
2019-03-29T13:41:00.080Z,8.90